Time;durP1;ratioP1;P1;durP2;ratioP2;P2;SDS_P1;SDS_P2;PMS_P1;PMS_P2;Temp;Humidity;BMP_temperature;BMP_pressure;BME280_temperature;BME280_humidity;BME280_pressure;Samples;Min_cycle;Max_cycle;Signal;HPM_P1;HPM_P2
2023/05/05 00:01:05;;;;;;;9.00;3.70;;;13.70;99.90;;;14.52;100.00;98131.41;4920854;29;20530;-76
2023/05/05 00:03:35;;;;;;;5.03;4.00;;;13.70;99.90;;;14.46;100.00;98121.75;4920965;29;20551;-77
2023/05/05 00:06:06;;;;;;;6.43;4.30;;;13.70;99.90;;;14.42;100.00;98128.44;4921652;29;20466;-76
2023/05/05 00:08:36;;;;;;;10.43;4.10;;;13.70;99.90;;;14.35;100.00;98134.72;4921140;29;20466;-76
2023/05/05 00:11:05;;;;;;;5.40;3.83;;;13.70;99.90;;;14.35;100.00;98127.66;4920802;29;20470;-76
2023/05/05 00:13:34;;;;;;;8.43;3.90;;;13.60;99.90;;;14.34;100.00;98131.28;4921199;29;20522;-76
2023/05/05 00:16:03;;;;;;;5.47;3.80;;;13.60;99.90;;;14.38;100.00;98126.41;4919899;29;21072;-76
2023/05/05 00:18:32;;;;;;;4.70;3.20;;;13.60;99.90;;;14.33;100.00;98132.28;4918667;29;20589;-76
2023/05/05 00:21:01;;;;;;;6.70;3.90;;;13.60;99.90;;;14.35;100.00;98127.66;4925468;29;20886;-76
2023/05/05 00:23:30;;;;;;;5.40;3.90;;;13.60;99.90;;;14.31;100.00;98133.50;4925204;29;20502;-76
2023/05/05 00:26:01;;;;;;;5.07;3.87;;;13.50;99.90;;;14.33;100.00;98129.66;4924261;29;20937;-76
2023/05/05 00:28:30;;;;;;;6.00;3.93;;;13.60;99.90;;;14.31;100.00;98133.50;4923712;29;20485;-77
2023/05/05 00:31:00;;;;;;;5.60;4.10;;;13.50;99.90;;;14.30;100.00;98140.56;4924726;29;20458;-76
2023/05/05 00:33:29;;;;;;;5.03;4.03;;;13.50;99.90;;;14.26;100.00;98135.97;4927793;29;20470;-76
2023/05/05 00:35:57;;;;;;;6.50;3.47;;;13.50;99.90;;;14.22;100.00;98132.94;4931288;28;20545;-76
2023/05/05 00:38:26;;;;;;;4.83;3.77;;;13.50;99.90;;;14.14;100.00;98130.53;4929136;29;20582;-76
2023/05/05 00:40:55;;;;;;;5.90;3.90;;;13.40;99.90;;;14.11;100.00;98133.56;4928744;29;20553;-76
2023/05/05 00:43:24;;;;;;;7.87;4.27;;;13.40;99.90;;;14.11;100.00;98128.31;4924427;29;20480;-76
2023/05/05 00:46:01;;;;;;;6.50;4.03;;;13.40;99.90;;;14.11;100.00;98126.50;4927635;29;20502;-76
2023/05/05 00:48:31;;;;;;;5.60;3.80;;;13.30;99.90;;;14.13;100.00;98131.53;4926912;29;20489;-76
2023/05/05 00:51:00;;;;;;;5.67;3.67;;;13.30;99.90;;;14.03;100.00;98128.53;4927647;29;20466;-76
2023/05/05 00:53:29;;;;;;;5.97;4.00;;;13.30;99.90;;;14.04;100.00;98124.91;4928940;29;20510;-76
2023/05/05 00:55:59;;;;;;;4.07;3.67;;;13.30;99.90;;;14.01;100.00;98120.88;4928312;29;20562;-76
2023/05/05 00:58:30;;;;;;;4.97;4.03;;;13.30;99.90;;;13.98;100.00;98120.47;4928564;29;21071;-76
2023/05/05 01:00:59;;;;;;;7.73;4.23;;;13.30;99.90;;;14.01;100.00;98126.13;4927180;29;20465;-77
2023/05/05 01:03:27;;;;;;;6.03;3.90;;;13.20;99.90;;;14.02;100.00;98126.94;4928753;29;21058;-76
2023/05/05 01:06:14;;;;;;;5.53;4.30;;;13.20;99.90;;;14.03;100.00;98115.38;4926140;29;20585;-76
2023/05/05 01:09:00;;;;;;;4.97;3.43;;;13.20;99.90;;;14.02;100.00;98116.41;4926085;29;20561;-76
2023/05/05 01:11:51;;;;;;;7.63;4.03;;;13.20;99.90;;;14.03;100.00;98126.72;4923450;29;20478;-76
2023/05/05 01:14:34;;;;;;;9.27;5.50;;;13.30;99.90;;;14.05;100.00;98126.53;4928413;29;20474;-76
2023/05/05 01:17:16;;;;;;;5.53;3.97;;;13.30;99.90;;;14.05;100.00;98123.91;4926914;29;20502;-76
2023/05/05 01:20:15;;;;;;;4.10;3.33;;;13.30;99.90;;;14.04;100.00;98119.63;4926833;29;21031;-76
2023/05/05 01:22:51;;;;;;;4.50;3.60;;;13.30;99.90;;;13.98;100.00;98131.81;4929526;29;20474;-76
2023/05/05 01:25:49;;;;;;;7.00;3.70;;;13.30;99.90;;;13.99;100.00;98133.41;4926611;29;21285;-76
2023/05/05 01:28:43;;;;;;;4.50;4.10;;;13.20;99.90;;;14.01;100.00;98120.88;4927420;29;21403;-76
2023/05/05 01:31:50;;;;;;;5.87;4.13;;;13.20;99.90;;;13.99;100.00;98129.94;4927403;29;20553;-76
2023/05/05 01:34:26;;;;;;;7.40;3.90;;;13.20;99.90;;;13.92;100.00;98124.72;4927454;29;20474;-76
2023/05/05 01:37:03;;;;;;;4.40;3.60;;;13.20;99.90;;;13.89;100.00;98121.69;4928135;29;21101;-76
2023/05/05 01:39:34;;;;;;;14.93;4.60;;;13.10;99.90;;;13.83;100.00;98128.59;4927171;29;20494;-76
2023/05/05 01:42:12;;;;;;;4.30;3.90;;;13.10;99.90;;;13.86;100.00;98128.19;4926081;29;20494;-76
2023/05/05 01:44:43;;;;;;;4.40;3.57;;;13.00;99.90;;;13.80;100.00;98128.19;4924931;29;21131;-76
2023/05/05 01:47:18;;;;;;;4.87;3.77;;;13.00;99.90;;;13.77;100.00;98128.59;4925599;29;20493;-76
2023/05/05 01:49:48;;;;;;;4.40;4.00;;;13.00;99.90;;;13.64;100.00;98121.53;4925971;29;20501;-76
2023/05/05 01:52:18;;;;;;;8.40;4.20;;;13.00;99.90;;;13.57;100.00;98121.53;4923704;29;20522;-76
2023/05/05 01:54:51;;;;;;;4.10;3.07;;;12.90;99.90;;;13.54;100.00;98127.22;4926299;29;20512;-76
2023/05/05 01:57:22;;;;;;;6.77;3.80;;;12.90;99.90;;;13.47;100.00;98121.16;4923564;29;20537;-77
2023/05/05 01:59:53;;;;;;;7.37;3.77;;;12.80;99.90;;;13.47;100.00;98122.97;4921526;29;20505;-76
2023/05/05 02:02:26;;;;;;;7.97;4.10;;;12.80;99.90;;;13.47;100.00;98129.03;4923875;29;20481;-76
2023/05/05 02:04:58;;;;;;;6.97;4.00;;;12.70;99.90;;;13.42;100.00;98131.47;4922132;29;21065;-77
2023/05/05 02:07:30;;;;;;;5.43;4.10;;;12.70;99.90;;;13.37;100.00;98130.44;4923491;29;20470;-76
2023/05/05 02:10:01;;;;;;;5.03;4.17;;;12.70;99.90;;;13.34;100.00;98128.22;4922585;29;20482;-76
2023/05/05 02:12:32;;;;;;;4.20;3.20;;;12.60;99.90;;;13.32;100.00;98140.78;4926641;29;20458;-75
2023/05/05 02:15:03;;;;;;;5.53;4.07;;;12.60;99.90;;;13.20;100.00;98139.75;4909321;29;20470;-76
2023/05/05 02:17:33;;;;;;;6.23;4.10;;;12.60;99.90;;;13.18;100.00;98139.97;4923080;29;20534;-76
2023/05/05 02:20:04;;;;;;;7.07;4.50;;;12.50;99.90;;;13.22;100.00;98145.63;4921435;29;20506;-76
2023/05/05 02:22:34;;;;;;;7.90;4.20;;;12.40;99.90;;;13.21;100.00;98144.81;4922726;29;20550;-76
2023/05/05 02:25:02;;;;;;;5.93;3.50;;;12.40;99.90;;;13.17;100.00;98145.41;4922388;29;20482;-76
2023/05/05 02:27:34;;;;;;;4.87;4.00;;;12.40;99.90;;;13.15;100.00;98152.69;4923147;29;20470;-76
2023/05/05 02:30:12;;;;;;;5.20;4.00;;;12.40;99.90;;;13.13;100.00;98152.88;4920554;29;20466;-76
2023/05/05 02:32:50;;;;;;;8.17;3.63;;;12.30;99.90;;;13.06;100.00;98152.00;4922663;29;20462;-76
2023/05/05 02:35:25;;;;;;;4.40;3.77;;;12.30;99.90;;;13.03;100.00;98160.28;4921214;29;20901;-76
2023/05/05 02:38:01;;;;;;;4.73;3.83;;;12.30;99.90;;;13.02;100.00;98153.41;4921645;29;20494;-76
2023/05/05 02:40:34;;;;;;;5.23;4.27;;;12.20;99.90;;;13.03;100.00;98162.91;4919984;29;20588;-76
2023/05/05 02:43:09;;;;;;;5.17;3.80;;;12.20;99.90;;;13.04;100.00;98159.28;4925803;29;20640;-76
2023/05/05 02:45:38;;;;;;;6.30;4.87;;;12.20;99.90;;;12.93;100.00;98160.69;4926341;29;20495;-77
2023/05/05 02:48:09;;;;;;;7.17;3.40;;;12.10;99.90;;;12.95;100.00;98163.91;4925531;29;20466;-76
2023/05/05 02:50:39;;;;;;;6.43;3.90;;;12.10;99.90;;;12.95;100.00;98163.09;4924570;29;20473;-76
2023/05/05 02:53:08;;;;;;;6.67;3.60;;;12.10;99.90;;;12.96;100.00;98164.72;4923305;29;20458;-76
2023/05/05 02:55:43;;;;;;;5.80;4.00;;;12.10;99.90;;;12.89;100.00;98159.47;4923932;29;21059;-76
2023/05/05 02:58:24;;;;;;;7.60;4.33;;;12.10;99.90;;;12.91;100.00;98160.06;4923791;29;20585;-76
2023/05/05 03:01:06;;;;;;;7.70;4.43;;;12.10;99.90;;;12.89;100.00;98156.84;4926133;29;20486;-76
2023/05/05 03:03:44;;;;;;;5.63;3.50;;;12.10;99.90;;;12.88;100.00;98149.16;4924583;29;20458;-76
2023/05/05 03:06:18;;;;;;;5.30;4.50;;;12.00;99.90;;;12.83;100.00;98151.56;4926858;29;20509;-76
2023/05/05 03:08:56;;;;;;;4.13;3.73;;;12.00;99.90;;;12.84;100.00;98153.97;4924922;29;20466;-77
2023/05/05 03:11:31;;;;;;;6.07;3.87;;;12.00;99.90;;;12.82;100.00;98160.44;4924631;29;20557;-76
2023/05/05 03:14:09;;;;;;;13.60;4.70;;;12.00;99.90;;;12.78;100.00;98159.22;4925425;29;21047;-76
2023/05/05 03:16:41;;;;;;;5.80;4.37;;;11.90;99.90;;;12.75;100.00;98157.00;4926079;29;20548;-76
2023/05/05 03:19:14;;;;;;;5.30;3.60;;;11.90;99.90;;;12.72;100.00;98160.03;4924546;29;20463;-76
2023/05/05 03:21:43;;;;;;;15.20;4.13;;;11.90;99.90;;;12.69;100.00;98155.97;4924045;29;20478;-76
2023/05/05 03:24:14;;;;;;;5.43;3.83;;;11.90;99.90;;;12.62;100.00;98160.41;4922064;29;21064;-76
2023/05/05 03:26:43;;;;;;;5.43;3.90;;;11.80;99.90;;;12.56;100.00;98158.56;4921443;29;20594;-76
2023/05/05 03:29:12;;;;;;;5.50;3.53;;;11.80;99.90;;;12.50;100.00;98152.28;4922251;29;20462;-76
2023/05/05 03:31:41;;;;;;;4.50;4.07;;;11.80;99.90;;;12.42;100.00;98152.47;4921796;29;20474;-76
2023/05/05 03:34:12;;;;;;;5.13;4.10;;;11.70;99.90;;;12.46;100.00;98156.28;4923150;29;20466;-76
2023/05/05 03:36:41;;;;;;;5.27;4.03;;;11.70;99.90;;;12.42;100.00;98160.34;4921947;29;20494;-75
2023/05/05 03:39:10;;;;;;;5.33;3.90;;;11.70;99.90;;;12.41;100.00;98161.34;4922744;29;20530;-76
2023/05/05 03:41:38;;;;;;;10.53;4.37;;;11.60;99.90;;;12.44;100.00;98165.38;4923236;29;20494;-76
2023/05/05 03:44:07;;;;;;;5.87;4.10;;;11.60;99.90;;;12.39;100.00;98168.56;4924375;29;20502;-76
2023/05/05 03:46:35;;;;;;;5.47;3.70;;;11.60;99.90;;;12.40;100.00;98162.31;4940757;28;20474;-80
2023/05/05 03:49:04;;;;;;;5.07;4.03;;;11.60;99.90;;;12.36;100.00;98163.72;4924591;29;20813;-76
2023/05/05 03:51:34;;;;;;;5.07;4.13;;;11.50;99.90;;;12.34;100.00;98167.53;4922483;29;21057;-76
2023/05/05 03:54:03;;;;;;;5.07;3.83;;;11.50;99.90;;;12.30;100.00;98169.75;4925010;29;20470;-76
2023/05/05 03:56:31;;;;;;;5.83;4.20;;;11.50;99.90;;;12.22;100.00;98169.91;4923764;29;20627;-75
2023/05/05 03:59:00;;;;;;;5.20;3.97;;;11.50;99.90;;;12.22;100.00;98177.00;4923524;29;20541;-76
2023/05/05 04:01:30;;;;;;;7.93;4.37;;;11.50;99.90;;;12.21;100.00;98168.31;4924354;29;20590;-76
2023/05/05 04:03:58;;;;;;;5.63;4.10;;;11.40;99.90;;;12.19;100.00;98174.72;4923443;29;20498;-76
2023/05/05 04:06:27;;;;;;;7.20;5.20;;;11.30;99.90;;;12.21;100.00;98172.75;4921281;29;20486;-76
2023/05/05 04:08:57;;;;;;;5.90;3.83;;;11.30;99.90;;;12.18;100.00;98171.31;4924154;29;20510;-75
2023/05/05 04:11:26;;;;;;;6.07;4.70;;;11.30;99.90;;;12.16;100.00;98182.97;4924149;29;21036;-76
2023/05/05 04:13:55;;;;;;;11.63;5.23;;;11.30;99.90;;;12.18;100.00;98178.38;4921052;29;20478;-76
2023/05/05 04:16:23;;;;;;;14.00;4.57;;;11.30;99.90;;;12.12;100.00;98179.94;4925128;29;20466;-76
2023/05/05 04:18:52;;;;;;;5.90;4.83;;;11.30;99.90;;;12.11;100.00;98178.34;4924327;29;20577;-76
2023/05/05 04:21:21;;;;;;;6.50;5.27;;;11.30;99.90;;;12.11;100.00;98183.59;4919369;29;20581;-76
2023/05/05 04:23:49;;;;;;;9.10;5.33;;;11.30;99.90;;;12.09;100.00;98190.81;4920731;29;20918;-76
2023/05/05 04:26:19;;;;;;;9.00;4.50;;;11.30;99.90;;;12.06;100.00;98180.72;4922070;29;22049;-76
2023/05/05 04:28:48;;;;;;;6.77;4.80;;;11.20;99.90;;;12.07;100.00;98185.78;4922067;29;20481;-76
2023/05/05 04:31:16;;;;;;;8.07;4.80;;;11.20;99.90;;;12.02;100.00;98189.97;4924266;29;20482;-75
2023/05/05 04:33:45;;;;;;;10.57;6.23;;;11.20;99.90;;;12.05;100.00;98187.75;4923284;29;20915;-76
2023/05/05 04:36:14;;;;;;;8.23;4.77;;;11.20;99.90;;;12.05;100.00;98186.94;4922186;29;21038;-76
2023/05/05 04:38:43;;;;;;;11.90;4.40;;;11.20;99.90;;;12.04;100.00;98185.34;4921590;29;20521;-76
2023/05/05 04:41:12;;;;;;;7.67;5.17;;;11.20;99.90;;;12.04;100.00;98183.50;4922907;29;20597;-76
2023/05/05 04:43:42;;;;;;;7.13;4.83;;;11.20;99.90;;;12.05;100.00;98184.31;4923568;29;20462;-76
2023/05/05 04:46:10;;;;;;;10.10;5.37;;;11.20;99.90;;;12.08;100.00;98183.94;4922295;29;20960;-76
2023/05/05 04:48:39;;;;;;;7.77;5.20;;;11.20;99.90;;;12.09;100.00;98196.06;4924271;29;20469;-76
2023/05/05 04:51:08;;;;;;;7.80;5.60;;;11.20;99.90;;;12.10;100.00;98197.69;4919699;29;20802;-76
2023/05/05 04:53:36;;;;;;;9.07;4.87;;;11.30;99.90;;;12.11;100.00;98200.09;4921454;29;20541;-76
2023/05/05 04:56:05;;;;;;;7.47;5.60;;;11.30;99.90;;;12.11;100.00;98199.31;4921641;29;20474;-76
2023/05/05 04:58:34;;;;;;;6.37;4.53;;;11.30;99.90;;;12.13;100.00;98202.53;4922988;29;20571;-76
2023/05/05 05:01:07;;;;;;;6.70;4.97;;;11.30;99.90;;;12.14;100.00;98204.16;4918305;29;20494;-76
2023/05/05 05:03:36;;;;;;;7.53;4.80;;;11.30;99.90;;;12.17;100.00;98198.53;4920268;29;20474;-76
2023/05/05 05:06:06;;;;;;;8.20;4.07;;;11.30;99.90;;;12.19;100.00;98199.13;4921796;29;20509;-76
2023/05/05 05:08:35;;;;;;;7.10;5.20;;;11.30;99.90;;;12.19;100.00;98196.50;4922003;29;20470;-75
2023/05/05 05:11:05;;;;;;;5.70;4.50;;;11.30;99.90;;;12.28;100.00;98203.25;4919928;29;21226;-75
2023/05/05 05:13:33;;;;;;;11.33;4.90;;;11.40;99.90;;;12.30;100.00;98197.78;4920307;29;20475;-75
2023/05/05 05:16:03;;;;;;;7.80;4.60;;;11.40;99.90;;;12.32;100.00;98196.56;4923091;29;20478;-76
2023/05/05 05:18:33;;;;;;;9.77;4.57;;;11.50;99.90;;;12.38;100.00;98201.06;4925137;29;20478;-76
2023/05/05 05:21:02;;;;;;;9.30;4.83;;;11.50;99.90;;;12.45;100.00;98201.91;4928129;29;20501;-76
2023/05/05 05:23:31;;;;;;;5.80;3.80;;;11.50;99.90;;;12.52;100.00;98204.56;4927050;29;20541;-76
2023/05/05 05:26:00;;;;;;;5.97;4.00;;;11.60;99.90;;;12.55;100.00;98202.34;4927702;29;20531;-76
2023/05/05 05:28:29;;;;;;;5.37;4.87;;;11.70;99.90;;;12.58;100.00;98212.44;4926360;29;20529;-76
2023/05/05 05:30:58;;;;;;;5.83;4.60;;;11.70;99.90;;;12.63;100.00;98208.44;4925657;29;20473;-75
2023/05/05 05:33:28;;;;;;;8.00;5.20;;;11.80;99.90;;;12.69;100.00;98207.66;4924273;29;20569;-76
2023/05/05 05:35:57;;;;;;;6.60;4.97;;;11.80;99.90;;;12.75;100.00;98193.72;4926492;29;20478;-76
2023/05/05 05:38:26;;;;;;;4.43;3.80;;;11.80;99.90;;;12.81;100.00;98206.06;4925084;29;20473;-76
2023/05/05 05:40:55;;;;;;;30.57;5.20;;;11.90;99.90;;;12.84;100.00;98206.47;4922243;29;20876;-76
2023/05/05 05:43:23;;;;;;;6.30;5.07;;;12.00;99.90;;;12.87;100.00;98205.28;4924417;29;20490;-76
2023/05/05 05:45:52;;;;;;;5.93;4.40;;;12.00;99.90;;;12.93;100.00;98205.31;4925650;29;20474;-76
2023/05/05 05:48:23;;;;;;;7.07;4.80;;;12.10;99.90;;;12.98;100.00;98202.88;4923159;29;20481;-76
2023/05/05 05:50:53;;;;;;;8.37;5.43;;;12.10;99.90;;;13.01;100.00;98207.75;4923582;29;20470;-76
2023/05/05 05:53:23;;;;;;;5.10;4.20;;;12.20;99.90;;;13.04;100.00;98201.31;4922213;29;20557;-76
2023/05/05 05:55:52;;;;;;;8.57;4.87;;;12.20;99.90;;;13.08;100.00;98211.19;4923850;29;20503;-74
2023/05/05 05:58:21;;;;;;;12.13;7.77;;;12.30;99.90;;;13.11;100.00;98210.03;4918573;29;20974;-76
2023/05/05 06:00:49;;;;;;;8.63;5.67;;;12.30;99.90;;;13.17;100.00;98217.09;4904864;29;20466;-76
2023/05/05 06:03:18;;;;;;;5.70;5.10;;;12.40;99.90;;;13.22;100.00;98206.00;4921532;29;20557;-75
2023/05/05 06:05:47;;;;;;;7.00;4.67;;;12.40;99.90;;;13.26;100.00;98210.66;4923748;29;20490;-76
2023/05/05 06:08:16;;;;;;;5.90;5.03;;;12.50;99.90;;;13.32;100.00;98214.31;4921074;29;20463;-76
2023/05/05 06:10:47;;;;;;;7.23;4.33;;;12.50;99.90;;;13.36;100.00;98211.06;4924288;29;20553;-76
2023/05/05 06:13:15;;;;;;;7.67;5.27;;;12.50;99.90;;;13.43;100.00;98218.97;4922703;29;20826;-76
2023/05/05 06:15:44;;;;;;;6.10;4.47;;;12.60;99.90;;;13.48;100.00;98211.28;4922370;29;20497;-74
2023/05/05 06:18:14;;;;;;;10.07;5.47;;;12.70;99.90;;;13.53;100.00;98206.25;4921976;29;20476;-76
2023/05/05 06:20:43;;;;;;;7.77;5.37;;;12.70;99.90;;;13.59;100.00;98211.50;4925759;29;20470;-77
2023/05/05 06:23:12;;;;;;;6.53;4.70;;;12.70;99.90;;;13.66;100.00;98218.56;4925442;29;20470;-76
2023/05/05 06:25:40;;;;;;;6.00;4.50;;;12.80;99.90;;;13.71;100.00;98218.78;4924375;29;20866;-77
2023/05/05 06:28:10;;;;;;;6.90;4.87;;;12.90;99.90;;;13.77;100.00;98221.41;4926297;29;20482;-76
2023/05/05 06:30:39;;;;;;;11.73;5.47;;;12.90;99.90;;;13.83;100.00;98219.78;4926080;29;21024;-77
2023/05/05 06:33:08;;;;;;;6.60;4.90;;;13.00;99.90;;;13.88;100.00;98220.00;4925098;29;20477;-77
2023/05/05 06:35:37;;;;;;;7.03;5.33;;;13.10;99.90;;;13.92;100.00;98216.72;4926895;29;21492;-76
2023/05/05 06:38:06;;;;;;;5.73;4.47;;;13.10;99.90;;;13.97;100.00;98218.75;4926443;29;20554;-77
2023/05/05 06:40:35;;;;;;;5.37;3.93;;;13.20;99.90;;;14.02;100.00;98216.34;4924455;29;20476;-77
2023/05/05 06:43:03;;;;;;;5.17;4.00;;;13.20;99.90;;;14.05;100.00;98216.75;4923100;29;20562;-76
2023/05/05 06:45:33;;;;;;;5.90;4.50;;;13.30;99.90;;;14.11;100.00;98220.38;4921520;29;20474;-76
2023/05/05 06:48:02;;;;;;;6.60;4.33;;;13.30;99.90;;;14.17;100.00;98216.09;4920361;29;20475;-76
2023/05/05 06:50:32;;;;;;;157.97;73.97;;;13.40;99.90;;;14.22;100.00;98211.84;4922722;29;20467;-76
2023/05/05 06:53:03;;;;;;;23.27;11.93;;;13.40;99.90;;;14.28;100.00;98213.66;4924944;29;20993;-76
2023/05/05 06:55:32;;;;;;;7.03;5.53;;;13.50;99.90;;;14.35;100.00;98209.22;4925614;29;21250;-76
2023/05/05 06:58:00;;;;;;;5.93;4.33;;;13.50;99.90;;;14.43;100.00;98210.81;4925408;29;20993;-76
2023/05/05 07:00:29;;;;;;;8.40;4.53;;;13.60;99.90;;;14.48;100.00;98206.53;4925221;29;20534;-76
2023/05/05 07:02:59;;;;;;;9.30;4.37;;;13.70;99.90;;;14.57;100.00;98210.56;4921104;29;20510;-76
2023/05/05 07:05:28;;;;;;;4.87;3.40;;;13.80;99.90;;;14.66;100.00;98210.31;4925858;29;20481;-76
2023/05/05 07:07:57;;;;;;;5.23;3.80;;;13.80;99.90;;;14.76;100.00;98206.22;4926151;29;20529;-76
2023/05/05 07:10:27;;;;;;;6.83;4.20;;;14.00;99.90;;;14.86;100.00;98203.13;4924367;29;20958;-76
2023/05/05 07:12:56;;;;;;;5.73;3.50;;;14.00;99.90;;;14.94;100.00;98200.25;4924578;29;20906;-77
2023/05/05 07:15:25;;;;;;;3.93;3.50;;;14.20;99.90;;;15.03;100.00;98206.88;4926195;29;20933;-76
2023/05/05 07:17:57;;;;;;;3.47;3.00;;;14.30;99.90;;;15.13;100.00;98205.41;4925323;29;20476;-76
2023/05/05 07:20:28;;;;;;;7.00;3.10;;;14.40;99.90;;;15.28;100.00;98213.03;4924788;29;20907;-77
2023/05/05 07:22:56;;;;;;;5.40;2.77;;;14.60;99.90;;;15.38;100.00;98213.38;4925276;29;20537;-76
2023/05/05 07:25:25;;;;;;;3.60;3.00;;;14.60;99.90;;;15.47;100.00;98208.66;4924527;29;20463;-76
2023/05/05 07:27:55;;;;;;;4.20;2.70;;;14.70;99.90;;;15.57;100.00;98212.47;4925014;29;20829;-76
2023/05/05 07:30:24;;;;;;;6.53;3.57;;;14.80;99.90;;;15.65;100.00;98207.94;4924105;29;20470;-77
2023/05/05 07:32:53;;;;;;;3.90;2.97;;;14.90;99.90;;;15.73;100.00;98211.09;4925428;29;20462;-76
2023/05/05 07:35:23;;;;;;;3.63;3.33;;;15.00;99.90;;;15.83;100.00;98215.88;4924487;29;20493;-77
2023/05/05 07:37:53;;;;;;;3.93;2.93;;;15.00;99.90;;;15.90;100.00;98217.44;4920798;29;20478;-76
2023/05/05 07:40:22;;;;;;;135.07;63.50;;;15.20;99.90;;;15.99;100.00;98215.34;4921344;29;21040;-76
2023/05/05 07:42:50;;;;;;;5.27;4.10;;;15.30;99.90;;;16.10;100.00;98219.91;4921866;29;20539;-76
2023/05/05 07:45:19;;;;;;;5.27;2.80;;;15.40;99.90;;;16.17;100.00;98228.59;4923337;29;20490;-76
2023/05/05 07:47:48;;;;;;;4.07;2.70;;;15.40;99.90;;;16.23;100.00;98227.69;4924607;29;20462;-77
2023/05/05 07:50:17;;;;;;;2.93;2.23;;;15.50;99.90;;;16.30;100.00;98225.81;4925350;29;20553;-76
2023/05/05 07:52:45;;;;;;;3.43;2.80;;;15.60;99.90;;;16.38;100.00;98219.44;4922816;29;20534;-77
2023/05/05 07:55:28;;;;;;;3.37;2.40;;;15.60;99.90;;;16.45;100.00;98218.31;4924283;29;20460;-77
2023/05/05 07:57:57;;;;;;;2.97;2.40;;;15.80;99.90;;;16.54;100.00;98213.56;4924970;29;20533;-76
2023/05/05 08:00:26;;;;;;;1.93;1.70;;;16.00;99.90;;;16.63;100.00;98216.72;4925459;29;20474;-77
2023/05/05 08:02:54;;;;;;;2.57;2.20;;;16.00;99.90;;;16.69;100.00;98210.59;4939855;28;20506;-77
2023/05/05 08:05:23;;;;;;;2.27;2.07;;;16.00;99.90;;;16.74;100.00;98202.78;4924753;29;20466;-77
2023/05/05 08:07:53;;;;;;;6.73;2.40;;;16.00;99.90;;;16.81;100.00;98199.03;4924807;29;20553;-77
2023/05/05 08:10:22;;;;;;;2.20;1.60;;;16.10;99.90;;;16.87;100.00;98194.72;4924602;29;20546;-77
2023/05/05 08:12:53;;;;;;;3.27;1.53;;;16.10;99.90;;;16.98;100.00;98191.28;4923299;29;20569;-79
2023/05/05 08:15:22;;;;;;;1.50;1.37;;;16.30;99.90;;;17.07;100.00;98190.78;4922751;29;20709;-77
2023/05/05 08:17:54;;;;;;;5.40;2.00;;;16.40;99.90;;;17.17;100.00;98187.59;4923619;29;20617;-77
2023/05/05 08:20:27;;;;;;;2.60;1.50;;;16.50;99.90;;;17.26;100.00;98191.50;4922578;29;21012;-77
2023/05/05 08:22:56;;;;;;;2.17;1.60;;;16.60;99.90;;;17.31;100.00;98189.00;4922112;29;20490;-76
2023/05/05 08:25:25;;;;;;;2.37;1.40;;;16.60;99.90;;;17.38;100.00;98181.78;4921539;29;20513;-80
2023/05/05 08:27:56;;;;;;;4.47;2.60;;;16.70;99.90;;;17.46;100.00;98191.19;4920575;29;20477;-76
2023/05/05 08:30:25;;;;;;;3.73;1.30;;;16.90;99.90;;;17.54;100.00;98181.09;4919821;29;20478;-76
2023/05/05 08:32:55;;;;;;;1.93;1.60;;;17.00;99.90;;;17.61;100.00;98178.38;4919899;29;20478;-75
2023/05/05 08:35:24;;;;;;;3.03;1.33;;;17.00;99.90;;;17.70;100.00;98176.22;4921408;29;21258;-76
2023/05/05 08:37:53;;;;;;;2.87;1.57;;;17.10;99.90;;;17.76;100.00;98165.53;4919313;29;20483;-76
2023/05/05 08:40:33;;;;;;;6.53;1.47;;;17.20;99.90;;;17.82;100.00;98169.06;4919740;29;20502;-76
2023/05/05 08:43:03;;;;;;;1.43;1.17;;;17.10;99.90;;;17.91;100.00;98170.38;4918235;28;20729;-77
2023/05/05 08:45:32;;;;;;;1.70;1.47;;;17.40;99.90;;;17.99;100.00;98170.00;4920859;29;20506;-76
2023/05/05 08:48:04;;;;;;;4.83;1.97;;;17.30;99.90;;;18.07;100.00;98174.94;4921617;29;20533;-76
2023/05/05 08:50:33;;;;;;;5.13;1.93;;;17.40;99.90;;;18.12;100.00;98175.03;4921043;29;20473;-76
2023/05/05 08:53:11;;;;;;;1.37;1.10;;;17.40;99.90;;;18.21;100.00;98168.38;4921216;29;20544;-76
2023/05/05 08:55:49;;;;;;;2.43;1.40;;;17.60;99.90;;;18.26;100.00;98165.00;4926936;29;21024;-77
2023/05/05 08:58:20;;;;;;;3.00;1.40;;;17.60;99.90;;;18.31;100.00;98163.28;4924081;29;20947;-76
2023/05/05 09:00:49;;;;;;;5.83;1.13;;;17.60;99.90;;;18.37;100.00;98172.94;4924624;29;21019;-76
2023/05/05 09:03:20;;;;;;;51.90;26.27;;;17.70;99.90;;;18.43;100.00;98169.34;4915271;29;21104;-77
2023/05/05 09:05:50;;;;;;;2.17;1.20;;;17.80;99.90;;;18.46;100.00;98179.50;4925623;29;20474;-76
2023/05/05 09:08:20;;;;;;;2.70;1.30;;;17.70;99.90;;;18.51;100.00;98166.38;4924498;29;20462;-77
2023/05/05 09:10:51;;;;;;;2.83;1.30;;;17.80;99.90;;;18.59;100.00;98170.50;4921799;29;20982;-76
2023/05/05 09:13:21;;;;;;;5.77;1.30;;;17.90;99.90;;;18.67;100.00;98172.78;4923536;29;20474;-75
2023/05/05 09:15:51;;;;;;;3.00;1.13;;;17.90;99.90;;;18.73;99.77;98181.63;4925930;29;20886;-76
2023/05/05 09:18:21;;;;;;;3.10;1.20;;;18.00;99.90;;;18.80;97.09;98177.00;4923873;29;20506;-76
2023/05/05 09:20:50;;;;;;;3.53;1.30;;;18.10;99.90;;;18.82;93.06;98177.56;4924767;29;20474;-76
2023/05/05 09:23:21;;;;;;;2.80;1.30;;;18.00;99.90;;;18.87;93.54;98180.31;4924741;29;20497;-76
2023/05/05 09:26:07;;;;;;;3.83;1.30;;;18.10;99.90;;;18.95;93.55;98177.31;4924323;29;20473;-76
2023/05/05 09:28:37;;;;;;;2.27;1.20;;;18.20;99.90;;;19.02;94.15;98177.97;4926637;29;20478;-76
2023/05/05 09:31:14;;;;;;;2.93;1.43;;;18.30;99.90;;;19.09;91.74;98178.59;4927226;29;20474;-77
2023/05/05 09:33:44;;;;;;;2.70;1.37;;;18.50;99.90;;;19.12;90.27;98175.50;4927842;29;20491;-77
2023/05/05 09:36:12;;;;;;;2.23;1.10;;;18.40;99.90;;;19.20;89.62;98179.56;4926945;29;20606;-76
2023/05/05 09:38:41;;;;;;;2.07;1.50;;;18.50;99.90;;;19.26;89.01;98176.00;4927062;29;20561;-77
2023/05/05 09:41:10;;;;;;;2.93;1.27;;;18.50;99.90;;;19.34;89.44;98167.63;4926683;29;20471;-76
2023/05/05 09:43:57;;;;;;;2.17;1.37;;;18.60;99.90;;;19.38;87.43;98174.88;4926550;29;21092;-76
2023/05/05 09:46:26;;;;;;;8.03;1.20;;;18.70;99.90;;;19.45;87.53;98161.47;4926816;29;20979;-77
2023/05/05 09:48:55;;;;;;;1.93;1.10;;;18.70;99.90;;;19.47;87.27;98159.41;4924684;29;20628;-77
2023/05/05 09:51:30;;;;;;;2.63;1.30;;;18.70;99.90;;;19.54;87.33;98157.41;4924574;29;20558;-76
2023/05/05 09:53:59;;;;;;;8.53;5.17;;;18.80;99.90;;;19.63;86.92;98160.44;4927783;29;20466;-78
2023/05/05 09:56:39;;;;;;;3.03;1.40;;;18.90;99.90;;;19.71;86.88;98154.72;4927215;29;20473;-78
2023/05/05 09:59:12;;;;;;;3.80;1.30;;;19.00;99.90;;;19.77;87.42;98153.75;4927701;29;20502;-77
2023/05/05 10:01:42;;;;;;;2.73;1.40;;;19.10;99.90;;;19.80;85.70;98155.91;4925481;29;20474;-77
2023/05/05 10:04:24;;;;;;;3.00;1.33;;;19.10;99.90;;;19.84;84.11;98157.03;4924727;29;20507;-78
2023/05/05 10:06:54;;;;;;;2.97;1.20;;;19.20;99.90;;;19.85;83.03;98151.50;4928225;29;20604;-78
2023/05/05 10:09:24;;;;;;;3.87;1.17;;;19.20;99.90;;;19.87;82.58;98145.94;4926681;29;20479;-78
2023/05/05 10:11:53;;;;;;;1.40;1.13;;;19.20;99.90;;;19.91;82.55;98153.19;4925481;29;20474;-77
2023/05/05 10:14:26;;;;;;;3.20;1.27;;;19.20;99.90;;;20.00;82.56;98150.91;4927647;29;20541;-77
2023/05/05 10:16:56;;;;;;;2.73;1.40;;;19.30;99.90;;;20.05;82.27;98149.13;4926360;29;20462;-76
2023/05/05 10:19:27;;;;;;;1.80;1.03;;;19.40;99.90;;;20.10;81.23;98159.00;4925990;29;20505;-77
2023/05/05 10:22:08;;;;;;;1.33;1.00;;;19.40;99.90;;;20.16;81.12;98150.06;4924410;29;20547;-77
2023/05/05 10:24:42;;;;;;;3.43;1.30;;;19.50;99.90;;;20.22;80.40;98150.94;4926409;29;20521;-77
2023/05/05 10:27:18;;;;;;;2.60;1.60;;;19.50;99.90;;;20.30;80.53;98151.34;4926253;29;20497;-77
2023/05/05 10:30:01;;;;;;;43.10;25.90;;;19.60;99.90;;;20.36;79.81;98146.91;4924586;29;20505;-75